Time;durP1;ratioP1;P1;durP2;ratioP2;P2;SDS_P1;SDS_P2;PMS_P1;PMS_P2;Temp;Humidity;BMP_temperature;BMP_pressure;BME280_temperature;BME280_humidity;BME280_pressure;Samples;Min_cycle;Max_cycle;Signal;HPM_P1;HPM_P2
2021/05/06 00:11:33;;;;;;;;;;;4.40;95.80;;;;;;5020425;28;19925;-62
2021/05/06 00:32:55;;;;;;;;;;;4.40;95.80;;;;;;5015138;28;19933;-62
2021/05/06 00:35:21;;;;;;;;;;;4.40;95.80;;;;;;5024055;28;19917;-62
2021/05/06 00:37:57;;;;;;;;;;;4.40;95.90;;;;;;5021225;28;19928;-62
2021/05/06 00:40:30;;;;;;;;;;;4.40;96.10;;;;;;5024722;28;19956;-62
2021/05/06 01:01:58;;;;;;;;;;;4.20;96.30;;;;;;5024056;28;19923;-61
2021/05/06 01:04:33;;;;;;;;;;;4.20;96.40;;;;;;5017205;28;20351;-61
2021/05/06 01:09:34;;;;;;;;;;;4.20;96.50;;;;;;5020156;28;20596;-61
2021/05/06 01:12:03;;;;;;;;;;;4.10;96.40;;;;;;5021227;28;20009;-62
2021/05/06 01:14:28;;;;;;;;;;;4.10;96.30;;;;;;5016428;28;19925;-62
2021/05/06 01:16:55;;;;;;;;;;;4.10;96.40;;;;;;5028957;28;19921;-61
2021/05/06 01:19:21;;;;;;;;;;;4.10;96.40;;;;;;5017960;28;20015;-62
2021/05/06 01:21:46;;;;;;;;;;;4.00;96.60;;;;;;5024021;28;19925;-62
2021/05/06 01:24:12;;;;;;;;;;;4.00;96.60;;;;;;5025209;28;19975;-61
2021/05/06 01:26:43;;;;;;;;;;;4.00;96.60;;;;;;5023921;28;19982;-61
2021/05/06 01:29:18;;;;;;;;;;;3.90;96.50;;;;;;5022743;28;19953;-61
2021/05/06 01:31:51;;;;;;;;;;;3.90;96.60;;;;;;5011555;28;19922;-61
2021/05/06 01:34:20;;;;;;;;;;;3.90;96.60;;;;;;5023076;28;20297;-61
2021/05/06 01:36:51;;;;;;;;;;;3.80;96.50;;;;;;5024869;28;20296;-61
2021/05/06 01:42:37;;;;;;;;;;;3.70;96.60;;;;;;5018193;28;20011;-61
2021/05/06 01:48:14;;;;;;;;;;;3.70;96.90;;;;;;5023601;28;19917;-62
2021/05/06 01:58:40;;;;;;;;;;;3.80;97.20;;;;;;5028703;28;20351;-61
2021/05/06 02:01:06;;;;;;;;;;;3.90;97.30;;;;;;5019863;28;20003;-61
2021/05/06 02:03:33;;;;;;;;;;;3.90;97.60;;;;;;5027815;28;20368;-61
2021/05/06 02:05:59;;;;;;;;;;;3.90;97.40;;;;;;5027238;28;20373;-61
2021/05/06 02:08:25;;;;;;;;;;;4.00;97.60;;;;;;5019611;28;19924;-61
2021/05/06 02:10:54;;;;;;;;;;;4.00;97.50;;;;;;5028469;28;19925;-61
2021/05/06 02:13:20;;;;;;;;;;;4.00;97.40;;;;;;5012986;28;20129;-61
2021/05/06 02:15:54;;;;;;;;;;;4.00;97.50;;;;;;5022453;28;19921;-61
2021/05/06 02:18:21;;;;;;;;;;;4.10;97.70;;;;;;5019536;28;19932;-61
2021/05/06 02:20:48;;;;;;;;;;;4.00;97.50;;;;;;5024608;28;19917;-61
2021/05/06 02:23:13;;;;;;;;;;;4.00;97.60;;;;;;5016375;28;19917;-61
2021/05/06 02:25:39;;;;;;;;;;;4.00;97.60;;;;;;5021649;28;20281;-61
2021/05/06 02:28:05;;;;;;;;;;;3.90;97.60;;;;;;5017990;28;19961;-61
2021/05/06 02:30:30;;;;;;;;;;;3.90;97.60;;;;;;5023367;28;19933;-62
2021/05/06 02:32:56;;;;;;;;;;;3.90;97.60;;;;;;5017371;28;20043;-61
2021/05/06 02:35:22;;;;;;;;;;;3.80;97.60;;;;;;5027283;28;19948;-61
2021/05/06 02:37:47;;;;;;;;;;;3.80;97.70;;;;;;5020944;28;19917;-61
2021/05/06 02:40:13;;;;;;;;;;;3.80;97.70;;;;;;5017230;28;19930;-61
2021/05/06 02:42:39;;;;;;;;;;;3.70;97.70;;;;;;5021611;28;19917;-61
2021/05/06 02:45:06;;;;;;;;;;;3.70;97.80;;;;;;5022955;28;19921;-61
2021/05/06 02:47:31;;;;;;;;;;;3.60;97.70;;;;;;5022742;28;19947;-61
2021/05/06 02:49:57;;;;;;;;;;;3.60;97.70;;;;;;5019031;28;19916;-61
2021/05/06 02:52:38;;;;;;;;;;;3.60;97.70;;;;;;5025684;28;20306;-61
2021/05/06 02:55:13;;;;;;;;;;;3.50;97.60;;;;;;5019126;28;19947;-61
2021/05/06 02:57:43;;;;;;;;;;;3.50;97.70;;;;;;5026385;28;19917;-61
2021/05/06 03:02:55;;;;;;;;;;;3.40;97.80;;;;;;5025838;28;20047;-61
2021/05/06 03:05:23;;;;;;;;;;;3.40;97.80;;;;;;5017087;28;19921;-61
2021/05/06 03:08:04;;;;;;;;;;;3.40;97.90;;;;;;5023924;28;19924;-61
2021/05/06 03:24:04;;;;;;;;;;;3.50;98.50;;;;;;5001876;28;19932;-60
2021/05/06 03:26:32;;;;;;;;;;;3.50;98.60;;;;;;5023295;28;19932;-60
2021/05/06 03:29:02;;;;;;;;;;;3.50;98.50;;;;;;5024021;28;19956;-59
2021/05/06 03:42:24;;;;;;;;;;;3.50;98.90;;;;;;5030788;28;19929;-60
2021/05/06 04:22:23;;;;;;;;;;;3.40;99.60;;;;;;5019389;28;19928;-59
2021/05/06 04:39:00;;;;;;;;;;;3.60;99.90;;;;;;5021100;28;19932;-60
2021/05/06 04:41:39;;;;;;;;;;;3.70;99.80;;;;;;5021798;28;19971;-60
2021/05/06 05:04:50;;;;;;;;;;;4.40;99.70;;;;;;5016883;28;19917;-60
2021/05/06 05:07:42;;;;;;;;;;;4.50;99.50;;;;;;5022300;28;19971;-60
2021/05/06 05:10:31;;;;;;;;;;;4.60;99.40;;;;;;5019273;28;19917;-60
2021/05/06 05:13:19;;;;;;;;;;;4.60;99.40;;;;;;5025326;28;19959;-60
2021/05/06 05:18:47;;;;;;;;;;;4.70;99.30;;;;;;5023063;28;19993;-60
2021/05/06 05:23:19;;;;;;;;;;;4.80;99.20;;;;;;5025146;28;22804;-60
2021/05/06 05:24:55;;;;;;;;;;;4.90;99.10;;;;;;5020428;28;19917;-60
2021/05/06 05:26:59;;;;;;;;;;;4.90;98.80;;;;;;5017394;28;20377;-59
2021/05/06 05:29:24;;;;;;;;;;;5.00;98.60;;;;;;5021101;28;20432;-61
2021/05/06 05:31:50;;;;;;;;;;;5.10;98.60;;;;;;5019666;28;19921;-61
2021/05/06 05:34:30;;;;;;;;;;;5.20;98.70;;;;;;5020326;28;19971;-61
2021/05/06 05:36:57;;;;;;;;;;;5.30;98.40;;;;;;5022348;28;19924;-60
2021/05/06 05:39:35;;;;;;;;;;;5.40;98.30;;;;;;5020746;28;19921;-60
2021/05/06 05:55:10;;;;;;;;;;;6.50;97.10;;;;;;5022371;28;20402;-61
2021/05/06 05:57:36;;;;;;;;;;;6.70;97.80;;;;;;5027187;28;20011;-61
2021/05/06 06:00:03;;;;;;;;;;;6.80;97.30;;;;;;5020519;28;20000;-60
2021/05/06 06:02:29;;;;;;;;;;;6.80;96.30;;;;;;5021619;28;20055;-61
2021/05/06 06:04:54;;;;;;;;;;;6.80;96.70;;;;;;5023914;28;20004;-61
2021/05/06 06:07:20;;;;;;;;;;;6.70;97.20;;;;;;5016054;28;20036;-61
2021/05/06 06:09:46;;;;;;;;;;;6.60;96.30;;;;;;5023409;28;19960;-61
2021/05/06 06:12:11;;;;;;;;;;;6.50;96.80;;;;;;5021445;28;20299;-60
2021/05/06 06:14:42;;;;;;;;;;;6.30;96.30;;;;;;5025288;28;20004;-61
2021/05/06 06:17:08;;;;;;;;;;;6.20;96.50;;;;;;5017286;28;19916;-60
2021/05/06 06:19:36;;;;;;;;;;;6.10;97.00;;;;;;5022392;28;19924;-61
2021/05/06 06:22:06;;;;;;;;;;;6.10;97.70;;;;;;5022691;28;19925;-61
2021/05/06 06:24:31;;;;;;;;;;;6.20;98.10;;;;;;5024889;28;19921;-61
2021/05/06 06:26:57;;;;;;;;;;;6.40;98.30;;;;;;5017337;28;20012;-61
2021/05/06 06:29:29;;;;;;;;;;;6.60;98.20;;;;;;5023292;28;19917;-61
2021/05/06 06:31:55;;;;;;;;;;;6.70;98.60;;;;;;5019738;28;19967;-60
2021/05/06 06:34:21;;;;;;;;;;;6.90;97.30;;;;;;5021043;28;19921;-61
2021/05/06 06:36:46;;;;;;;;;;;7.00;97.00;;;;;;5019563;28;19988;-61
2021/05/06 06:39:14;;;;;;;;;;;7.20;96.30;;;;;;5025646;28;19967;-61
2021/05/06 06:41:41;;;;;;;;;;;7.30;96.50;;;;;;5020471;28;19920;-61
2021/05/06 06:44:06;;;;;;;;;;;7.40;97.00;;;;;;5021049;28;19921;-61
2021/05/06 06:46:32;;;;;;;;;;;7.60;96.60;;;;;;5027596;28;20093;-61
2021/05/06 06:48:58;;;;;;;;;;;7.60;95.90;;;;;;5019132;28;19974;-61
2021/05/06 06:51:24;;;;;;;;;;;7.80;96.90;;;;;;5021453;28;20272;-61
2021/05/06 06:53:50;;;;;;;;;;;7.90;96.00;;;;;;5021541;28;20269;-61
2021/05/06 06:56:16;;;;;;;;;;;7.90;95.50;;;;;;5021793;28;20355;-61
2021/05/06 06:58:42;;;;;;;;;;;8.10;96.80;;;;;;5013848;28;19964;-61
2021/05/06 07:01:08;;;;;;;;;;;8.20;94.10;;;;;;5019652;28;23008;-61
2021/05/06 07:03:34;;;;;;;;;;;8.20;94.00;;;;;;5015087;28;20280;-61
2021/05/06 07:06:00;;;;;;;;;;;8.30;93.10;;;;;;5021898;28;20007;-62
2021/05/06 07:08:29;;;;;;;;;;;8.40;94.40;;;;;;5012837;28;20107;-62
2021/05/06 07:10:55;;;;;;;;;;;8.50;92.50;;;;;;5023645;28;19936;-62
2021/05/06 07:13:21;;;;;;;;;;;8.70;93.90;;;;;;5017386;28;19944;-62
2021/05/06 07:15:48;;;;;;;;;;;8.80;93.00;;;;;;5022073;28;20359;-62
2021/05/06 07:18:14;;;;;;;;;;;8.90;93.20;;;;;;5015771;28;20008;-62
2021/05/06 07:20:42;;;;;;;;;;;9.00;93.10;;;;;;5018336;28;20011;-62
2021/05/06 07:23:17;;;;;;;;;;;9.10;90.10;;;;;;5023593;28;19921;-62
2021/05/06 07:25:43;;;;;;;;;;;9.10;89.10;;;;;;5020237;28;20279;-62
2021/05/06 07:28:10;;;;;;;;;;;9.30;92.90;;;;;;5024082;28;19917;-62
2021/05/06 07:30:36;;;;;;;;;;;9.40;90.70;;;;;;5019235;28;19921;-62
2021/05/06 07:33:02;;;;;;;;;;;9.50;91.40;;;;;;5024488;28;20394;-62
2021/05/06 07:35:28;;;;;;;;;;;9.80;90.60;;;;;;5019492;28;20371;-62
2021/05/06 07:37:54;;;;;;;;;;;10.10;90.30;;;;;;5021682;28;19925;-62
2021/05/06 07:40:20;;;;;;;;;;;10.30;87.40;;;;;;5014426;28;20400;-62
2021/05/06 07:42:45;;;;;;;;;;;10.50;85.50;;;;;;5025636;28;20020;-61
2021/05/06 07:45:11;;;;;;;;;;;10.40;85.50;;;;;;5012420;28;19963;-61
2021/05/06 07:47:36;;;;;;;;;;;10.40;91.90;;;;;;5026951;28;19923;-61
2021/05/06 07:50:02;;;;;;;;;;;10.50;90.00;;;;;;5017943;28;19921;-61
2021/05/06 07:52:28;;;;;;;;;;;10.50;88.30;;;;;;5021060;28;20032;-61
2021/05/06 07:54:55;;;;;;;;;;;10.40;81.90;;;;;;5016066;28;19931;-61
2021/05/06 07:57:21;;;;;;;;;;;10.30;83.90;;;;;;5025195;28;19943;-61
2021/05/06 07:59:47;;;;;;;;;;;10.30;90.20;;;;;;5018973;28;20429;-61
2021/05/06 08:02:13;;;;;;;;;;;10.50;82.30;;;;;;5024975;28;19924;-61
2021/05/06 08:04:38;;;;;;;;;;;10.80;84.00;;;;;;5025807;28;19999;-62
2021/05/06 08:07:04;;;;;;;;;;;11.30;79.40;;;;;;5015986;28;19917;-62
2021/05/06 08:09:31;;;;;;;;;;;11.50;72.30;;;;;;5018476;28;19920;-62
2021/05/06 08:12:00;;;;;;;;;;;11.30;76.10;;;;;;5018935;28;20368;-62
2021/05/06 08:14:26;;;;;;;;;;;11.00;75.60;;;;;;5023277;28;19921;-62
2021/05/06 08:16:51;;;;;;;;;;;10.60;78.20;;;;;;5016945;28;19917;-61
2021/05/06 08:19:17;;;;;;;;;;;10.30;75.80;;;;;;5016394;28;19941;-61
2021/05/06 08:21:43;;;;;;;;;;;10.20;77.40;;;;;;5015153;28;20293;-61
2021/05/06 08:24:09;;;;;;;;;;;10.50;78.30;;;;;;5019847;28;20296;-61
2021/05/06 08:26:35;;;;;;;;;;;10.90;76.00;;;;;;5013050;28;19921;-62
2021/05/06 08:29:01;;;;;;;;;;;10.90;79.00;;;;;;5027560;28;19925;-62
2021/05/06 08:31:27;;;;;;;;;;;11.30;83.30;;;;;;5022803;28;20380;-62
2021/05/06 08:33:53;;;;;;;;;;;11.50;77.90;;;;;;5024208;28;19921;-62
2021/05/06 08:36:18;;;;;;;;;;;11.20;76.50;;;;;;5021423;28;19943;-62
2021/05/06 08:38:44;;;;;;;;;;;11.30;78.70;;;;;;5026514;28;19939;-63
2021/05/06 08:41:10;;;;;;;;;;;11.50;89.20;;;;;;5018774;28;19921;-63
2021/05/06 08:43:37;;;;;;;;;;;11.20;79.90;;;;;;5024161;28;19968;-62
2021/05/06 08:46:03;;;;;;;;;;;11.10;73.70;;;;;;5023609;28;20363;-62
2021/05/06 08:48:29;;;;;;;;;;;11.10;75.40;;;;;;5021317;28;19975;-62
2021/05/06 08:50:56;;;;;;;;;;;10.80;73.80;;;;;;5025704;28;19917;-62
2021/05/06 08:53:22;;;;;;;;;;;10.50;72.70;;;;;;5023901;28;19921;-60
2021/05/06 08:55:49;;;;;;;;;;;10.50;84.30;;;;;;5018484;28;20280;-61
2021/05/06 08:58:15;;;;;;;;;;;10.90;77.10;;;;;;5018806;28;20376;-61
2021/05/06 09:00:41;;;;;;;;;;;11.40;76.70;;;;;;5026146;28;19999;-61
2021/05/06 09:03:07;;;;;;;;;;;11.90;78.30;;;;;;5017360;28;19922;-62
2021/05/06 09:05:35;;;;;;;;;;;11.70;72.30;;;;;;5026476;28;19928;-61
2021/05/06 09:08:01;;;;;;;;;;;11.30;66.90;;;;;;5014637;28;19978;-62
2021/05/06 09:10:38;;;;;;;;;;;11.60;69.60;;;;;;5020498;28;20020;-62
2021/05/06 09:13:23;;;;;;;;;;;11.90;77.40;;;;;;5015614;28;19963;-62
2021/05/06 09:15:49;;;;;;;;;;;11.80;87.10;;;;;;5024468;28;20385;-61
2021/05/06 09:18:33;;;;;;;;;;;11.70;75.10;;;;;;5023498;28;19948;-61
2021/05/06 09:20:59;;;;;;;;;;;12.20;85.30;;;;;;5016013;28;20444;-61
2021/05/06 09:23:25;;;;;;;;;;;12.30;67.20;;;;;;5019922;28;20062;-61
2021/05/06 09:25:51;;;;;;;;;;;12.50;75.50;;;;;;5020214;28;19935;-61
2021/05/06 09:28:17;;;;;;;;;;;12.60;72.80;;;;;;5014429;28;19917;-61
2021/05/06 09:30:46;;;;;;;;;;;12.50;66.50;;;;;;5027480;28;19956;-61
2021/05/06 09:33:11;;;;;;;;;;;12.40;70.30;;;;;;5023642;28;19917;-61
2021/05/06 09:35:47;;;;;;;;;;;12.50;80.50;;;;;;5021198;28;19921;-61
2021/05/06 09:38:23;;;;;;;;;;;12.40;68.20;;;;;;5025919;28;20335;-61
2021/05/06 09:40:49;;;;;;;;;;;12.40;67.60;;;;;;5020705;28;19925;-61
2021/05/06 09:43:22;;;;;;;;;;;12.10;66.40;;;;;;5020617;28;19928;-61
2021/05/06 09:45:48;;;;;;;;;;;11.80;69.20;;;;;;5016259;28;19952;-61
2021/05/06 09:48:19;;;;;;;;;;;11.30;68.20;;;;;;5024059;28;20434;-61
2021/05/06 09:50:46;;;;;;;;;;;10.70;71.50;;;;;;5018200;28;20377;-59
2021/05/06 09:53:13;;;;;;;;;;;10.10;75.20;;;;;;5023578;28;20553;-60
2021/05/06 09:55:40;;;;;;;;;;;9.40;76.30;;;;;;5019876;28;19925;-60
2021/05/06 09:58:12;;;;;;;;;;;8.60;79.50;;;;;;5029120;28;19920;-59
2021/05/06 10:00:39;;;;;;;;;;;8.10;82.30;;;;;;5020015;28;19921;-61
2021/05/06 10:03:17;;;;;;;;;;;7.40;85.40;;;;;;5025224;28;19920;-62
2021/05/06 10:05:44;;;;;;;;;;;7.00;90.20;;;;;;5018172;28;19925;-62
2021/05/06 10:08:10;;;;;;;;;;;6.70;90.00;;;;;;5021289;28;19917;-60
2021/05/06 10:10:38;;;;;;;;;;;6.50;90.80;;;;;;5017992;28;19916;-62
2021/05/06 10:13:04;;;;;;;;;;;6.30;91.70;;;;;;5026997;28;19924;-60
2021/05/06 10:15:30;;;;;;;;;;;6.40;92.90;;;;;;5020148;28;19927;-63
2021/05/06 10:17:56;;;;;;;;;;;6.30;94.40;;;;;;5023194;28;20012;-60
2021/05/06 10:20:26;;;;;;;;;;;6.30;93.30;;;;;;5016853;28;19932;-60
2021/05/06 10:22:53;;;;;;;;;;;6.30;93.40;;;;;;5029797;28;19917;-61
2021/05/06 10:25:20;;;;;;;;;;;6.40;94.80;;;;;;5023720;28;19917;-62
2021/05/06 10:27:46;;;;;;;;;;;6.50;93.90;;;;;;5026219;28;19931;-60
2021/05/06 10:30:13;;;;;;;;;;;6.70;95.20;;;;;;5023248;28;19924;-59
2021/05/06 10:32:40;;;;;;;;;;;7.00;95.00;;;;;;5016737;28;19933;-61
2021/05/06 10:35:07;;;;;;;;;;;7.50;94.20;;;;;;5025753;28;20042;-61
2021/05/06 10:37:33;;;;;;;;;;;7.70;92.30;;;;;;5019768;28;19921;-60
2021/05/06 10:40:00;;;;;;;;;;;7.90;91.10;;;;;;5018758;28;20333;-61
2021/05/06 10:42:26;;;;;;;;;;;8.20;90.70;;;;;;5019373;28;19949;-62
2021/05/06 10:44:57;;;;;;;;;;;8.70;93.70;;;;;;5022757;28;20028;-61
2021/05/06 10:47:52;;;;;;;;;;;9.40;90.70;;;;;;5018183;28;19967;-61
2021/05/06 10:50:19;;;;;;;;;;;9.70;87.40;;;;;;5015165;28;19935;-61
2021/05/06 10:52:46;;;;;;;;;;;10.20;84.90;;;;;;5019984;28;19923;-60
2021/05/06 10:55:13;;;;;;;;;;;10.60;84.20;;;;;;5026354;28;19917;-60
2021/05/06 10:57:39;;;;;;;;;;;11.00;80.50;;;;;;5018963;28;19971;-60
2021/05/06 11:00:20;;;;;;;;;;;11.30;81.60;;;;;;5028112;28;20416;-61
2021/05/06 11:02:47;;;;;;;;;;;11.60;80.10;;;;;;5021357;28;19931;-61
2021/05/06 11:05:13;;;;;;;;;;;11.90;84.80;;;;;;5024384;28;19921;-60
2021/05/06 11:07:39;;;;;;;;;;;12.00;79.10;;;;;;5019602;28;20132;-61
2021/05/06 11:10:06;;;;;;;;;;;12.10;76.50;;;;;;5025066;28;19917;-60
2021/05/06 11:12:33;;;;;;;;;;;12.00;76.20;;;;;;5015529;28;19925;-59
2021/05/06 11:14:59;;;;;;;;;;;11.90;78.10;;;;;;5024120;28;20434;-60
2021/05/06 11:17:39;;;;;;;;;;;12.20;75.70;;;;;;5023505;28;20168;-61
2021/05/06 11:20:11;;;;;;;;;;;12.50;70.00;;;;;;5027284;28;19917;-60
2021/05/06 11:22:47;;;;;;;;;;;12.40;73.20;;;;;;5016140;28;20361;-61
2021/05/06 11:25:25;;;;;;;;;;;12.50;72.00;;;;;;5019598;28;19924;-61
2021/05/06 11:27:54;;;;;;;;;;;12.90;76.20;;;;;;5021877;28;19954;-62
2021/05/06 11:30:30;;;;;;;;;;;12.90;64.30;;;;;;5029158;28;19921;-63
2021/05/06 11:32:56;;;;;;;;;;;13.00;73.30;;;;;;5018277;28;19921;-62
2021/05/06 11:35:21;;;;;;;;;;;12.80;67.70;;;;;;5022422;28;20300;-60
2021/05/06 11:37:53;;;;;;;;;;;12.50;66.30;;;;;;5023019;28;19953;-60
2021/05/06 11:40:26;;;;;;;;;;;12.20;70.20;;;;;;5015950;28;19922;-62
2021/05/06 11:42:53;;;;;;;;;;;11.60;70.10;;;;;;5024127;28;19921;-61
2021/05/06 11:45:23;;;;;;;;;;;11.30;71.50;;;;;;5013346;28;19921;-59
2021/05/06 11:47:49;;;;;;;;;;;11.00;77.90;;;;;;5027361;28;20409;-61
2021/05/06 11:50:16;;;;;;;;;;;11.10;75.00;;;;;;5015995;28;20004;-61
2021/05/06 11:52:42;;;;;;;;;;;11.40;71.70;;;;;;5022554;28;20020;-61
2021/05/06 11:55:08;;;;;;;;;;;11.70;73.30;;;;;;5017249;28;20408;-61
2021/05/06 11:57:33;;;;;;;;;;;11.80;72.00;;;;;;5026061;28;20003;-61
2021/05/06 11:59:59;;;;;;;;;;;11.90;68.50;;;;;;5023082;28;19921;-61
2021/05/06 12:02:25;;;;;;;;;;;12.20;69.90;;;;;;5030692;28;20380;-61
2021/05/06 12:04:52;;;;;;;;;;;12.60;66.50;;;;;;5018262;28;19921;-61
2021/05/06 12:07:22;;;;;;;;;;;13.00;66.70;;;;;;5027221;28;19917;-61
2021/05/06 12:09:48;;;;;;;;;;;13.60;73.70;;;;;;5018479;28;19963;-61
2021/05/06 12:12:24;;;;;;;;;;;14.10;69.20;;;;;;5026874;28;19917;-60
2021/05/06 12:14:49;;;;;;;;;;;14.40;76.60;;;;;;5019239;28;20372;-60
2021/05/06 12:17:18;;;;;;;;;;;14.60;63.90;;;;;;5022143;28;19929;-63
2021/05/06 12:19:47;;;;;;;;;;;14.50;57.80;;;;;;5025742;28;20507;-60
2021/05/06 12:22:13;;;;;;;;;;;14.80;55.10;;;;;;5025835;28;19940;-60
2021/05/06 12:24:41;;;;;;;;;;;15.00;63.60;;;;;;5026596;28;19917;-59
2021/05/06 12:27:17;;;;;;;;;;;14.80;58.00;;;;;;5019076;28;19971;-60
2021/05/06 12:29:44;;;;;;;;;;;14.70;55.60;;;;;;5028054;28;20015;-60
2021/05/06 12:32:19;;;;;;;;;;;14.50;60.30;;;;;;5018440;28;19920;-60
2021/05/06 12:34:45;;;;;;;;;;;14.40;58.00;;;;;;5023942;28;19917;-60
2021/05/06 12:37:11;;;;;;;;;;;14.10;69.00;;;;;;5019427;28;19917;-59
2021/05/06 12:39:39;;;;;;;;;;;13.50;60.50;;;;;;5022780;28;19921;-60
2021/05/06 12:42:05;;;;;;;;;;;13.10;60.30;;;;;;5016205;28;19917;-60
2021/05/06 12:44:34;;;;;;;;;;;12.60;61.10;;;;;;5024946;28;20222;-60
2021/05/06 12:47:18;;;;;;;;;;;12.40;82.80;;;;;;5013168;28;19917;-60
2021/05/06 12:50:03;;;;;;;;;;;12.20;76.90;;;;;;5029779;28;19944;-60
2021/05/06 12:52:33;;;;;;;;;;;12.10;72.70;;;;;;5019180;28;19944;-60
2021/05/06 12:55:01;;;;;;;;;;;12.10;92.20;;;;;;5026043;28;19979;-60
2021/05/06 12:57:28;;;;;;;;;;;12.00;85.60;;;;;;5013335;28;19968;-60
2021/05/06 12:59:53;;;;;;;;;;;11.80;73.80;;;;;;5019298;28;20254;-60
2021/05/06 13:02:19;;;;;;;;;;;11.70;65.50;;;;;;5018714;28;19917;-60
2021/05/06 13:04:46;;;;;;;;;;;11.70;68.20;;;;;;5022455;28;19975;-60
2021/05/06 13:07:12;;;;;;;;;;;11.70;66.30;;;;;;5017214;28;19924;-60
2021/05/06 13:09:48;;;;;;;;;;;11.50;66.70;;;;;;5019672;28;20004;-60
2021/05/06 13:12:18;;;;;;;;;;;11.60;69.90;;;;;;5016841;28;20004;-60
2021/05/06 13:14:44;;;;;;;;;;;11.70;77.00;;;;;;5024755;28;20328;-60
2021/05/06 13:17:25;;;;;;;;;;;11.80;74.60;;;;;;5020487;28;19952;-60
2021/05/06 13:19:51;;;;;;;;;;;11.80;79.20;;;;;;5024827;28;19929;-60
2021/05/06 13:22:18;;;;;;;;;;;11.80;73.40;;;;;;5015425;28;19928;-61
2021/05/06 13:24:45;;;;;;;;;;;11.80;84.10;;;;;;5027182;28;19924;-61
2021/05/06 13:27:15;;;;;;;;;;;11.70;83.30;;;;;;5019630;28;19960;-61
2021/05/06 13:30:07;;;;;;;;;;;11.60;77.30;;;;;;5009217;28;19968;-61
2021/05/06 13:32:34;;;;;;;;;;;11.50;71.20;;;;;;5013252;28;19925;-61
2021/05/06 13:34:59;;;;;;;;;;;11.40;76.20;;;;;;5025341;28;19928;-59
2021/05/06 13:37:38;;;;;;;;;;;11.30;87.80;;;;;;5024999;28;19925;-61
2021/05/06 13:40:04;;;;;;;;;;;11.20;82.90;;;;;;5017324;28;19921;-60
2021/05/06 13:42:30;;;;;;;;;;;11.20;92.10;;;;;;5022744;28;20011;-60
2021/05/06 13:44:57;;;;;;;;;;;11.00;92.30;;;;;;5013014;28;20012;-60
2021/05/06 13:47:23;;;;;;;;;;;10.90;93.20;;;;;;5020459;28;19967;-60
2021/05/06 13:49:49;;;;;;;;;;;10.60;93.50;;;;;;5012748;28;19917;-60
2021/05/06 13:52:15;;;;;;;;;;;10.20;91.40;;;;;;5024804;28;20258;-59
2021/05/06 13:54:41;;;;;;;;;;;10.00;93.50;;;;;;5016984;28;20361;-60
2021/05/06 13:57:06;;;;;;;;;;;9.60;92.20;;;;;;5027524;28;19953;-60
2021/05/06 13:59:32;;;;;;;;;;;9.30;92.20;;;;;;5016745;28;20621;-61
2021/05/06 14:01:58;;;;;;;;;;;9.00;93.20;;;;;;5021973;28;20009;-61
2021/05/06 14:04:24;;;;;;;;;;;8.80;94.80;;;;;;5020308;28;19956;-61
2021/05/06 14:06:49;;;;;;;;;;;8.50;94.80;;;;;;5027032;28;19921;-62
2021/05/06 14:09:17;;;;;;;;;;;8.20;93.50;;;;;;5018811;28;20365;-62
2021/05/06 14:11:43;;;;;;;;;;;8.20;94.20;;;;;;5023503;28;19944;-60
2021/05/06 14:14:09;;;;;;;;;;;8.10;96.30;;;;;;5020065;28;20418;-60
2021/05/06 14:16:35;;;;;;;;;;;8.10;96.80;;;;;;5016932;28;20271;-59
2021/05/06 14:19:01;;;;;;;;;;;8.10;97.40;;;;;;5022333;28;19921;-59
2021/05/06 14:21:27;;;;;;;;;;;8.00;95.40;;;;;;5010303;28;19921;-59
2021/05/06 14:23:53;;;;;;;;;;;7.90;96.00;;;;;;5025433;28;19978;-59
2021/05/06 14:26:19;;;;;;;;;;;7.90;96.90;;;;;;5008579;28;19920;-59
2021/05/06 14:28:45;;;;;;;;;;;7.80;94.60;;;;;;5024193;28;20411;-59
2021/05/06 14:31:10;;;;;;;;;;;7.70;96.10;;;;;;5015752;28;19925;-59
2021/05/06 14:33:37;;;;;;;;;;;7.70;96.30;;;;;;5020899;28;19929;-59
2021/05/06 14:36:10;;;;;;;;;;;7.60;96.90;;;;;;5027005;28;19921;-59
2021/05/06 14:38:35;;;;;;;;;;;7.60;97.10;;;;;;5013081;28;20392;-60
2021/05/06 14:41:02;;;;;;;;;;;7.60;97.40;;;;;;5027792;28;20127;-60
2021/05/06 14:43:27;;;;;;;;;;;7.60;97.50;;;;;;5015424;28;20387;-61
2021/05/06 14:45:53;;;;;;;;;;;7.70;97.40;;;;;;5021276;28;19947;-61
2021/05/06 14:48:19;;;;;;;;;;;7.70;97.60;;;;;;5018032;28;19925;-60
2021/05/06 14:50:45;;;;;;;;;;;7.90;97.80;;;;;;5020673;28;19924;-60
2021/05/06 14:53:11;;;;;;;;;;;8.10;98.00;;;;;;5025351;28;20000;-61
2021/05/06 14:55:37;;;;;;;;;;;8.30;98.30;;;;;;5011541;28;19920;-61
2021/05/06 14:58:03;;;;;;;;;;;8.40;95.80;;;;;;5025391;28;20019;-61
2021/05/06 15:00:29;;;;;;;;;;;8.50;95.90;;;;;;5015222;28;20024;-62
2021/05/06 15:02:55;;;;;;;;;;;8.60;94.70;;;;;;5018150;28;19933;-62
2021/05/06 15:05:22;;;;;;;;;;;8.70;92.50;;;;;;5011207;28;19925;-62
2021/05/06 15:07:48;;;;;;;;;;;8.70;92.90;;;;;;5016396;28;19917;-61
2021/05/06 15:10:14;;;;;;;;;;;8.70;91.30;;;;;;5019728;28;19931;-61
2021/05/06 15:12:43;;;;;;;;;;;8.80;92.10;;;;;;5014708;28;20339;-61
2021/05/06 15:15:09;;;;;;;;;;;8.90;91.40;;;;;;5017740;28;19923;-61
2021/05/06 15:17:35;;;;;;;;;;;8.90;92.80;;;;;;5016685;28;20300;-61
2021/05/06 15:20:02;;;;;;;;;;;9.00;92.40;;;;;;5022317;28;19927;-61
2021/05/06 15:22:28;;;;;;;;;;;9.00;92.10;;;;;;5019582;28;19925;-61
2021/05/06 15:24:54;;;;;;;;;;;9.00;91.70;;;;;;5020418;28;19952;-61
2021/05/06 15:27:21;;;;;;;;;;;9.10;91.20;;;;;;5023475;28;20333;-61
2021/05/06 15:29:46;;;;;;;;;;;9.00;90.90;;;;;;5012931;28;20008;-60
2021/05/06 15:32:13;;;;;;;;;;;8.80;90.80;;;;;;5020271;28;19944;-61
2021/05/06 15:34:40;;;;;;;;;;;8.80;90.80;;;;;;5015143;28;19927;-60
2021/05/06 15:37:06;;;;;;;;;;;8.60;90.60;;;;;;5028502;28;20365;-61
2021/05/06 15:39:32;;;;;;;;;;;8.40;90.90;;;;;;5020564;28;19936;-61
2021/05/06 15:41:58;;;;;;;;;;;8.40;91.40;;;;;;5019418;28;19917;-60
2021/05/06 15:44:23;;;;;;;;;;;8.30;91.80;;;;;;5029931;28;20502;-60
2021/05/06 15:46:49;;;;;;;;;;;8.30;92.50;;;;;;5018716;28;19917;-60
2021/05/06 15:49:15;;;;;;;;;;;8.20;91.20;;;;;;5023986;28;20347;-60
2021/05/06 15:51:40;;;;;;;;;;;8.10;91.70;;;;;;5015684;28;19941;-60
2021/05/06 15:54:07;;;;;;;;;;;8.20;92.40;;;;;;5021718;28;19925;-61
2021/05/06 15:56:33;;;;;;;;;;;8.10;91.00;;;;;;5023650;28;20356;-60
2021/05/06 15:59:00;;;;;;;;;;;8.10;92.00;;;;;;5026045;28;19921;-60
2021/05/06 16:01:26;;;;;;;;;;;8.10;92.00;;;;;;5028560;28;20357;-60
2021/05/06 16:04:00;;;;;;;;;;;8.20;92.80;;;;;;5016191;28;19924;-60
2021/05/06 16:06:25;;;;;;;;;;;8.20;93.00;;;;;;5023137;28;20090;-61
2021/05/06 16:08:51;;;;;;;;;;;8.20;91.90;;;;;;5019679;28;19929;-61
2021/05/06 16:11:17;;;;;;;;;;;8.20;91.90;;;;;;5024447;28;20261;-61
2021/05/06 16:13:43;;;;;;;;;;;8.30;92.20;;;;;;5022321;28;20055;-61
2021/05/06 16:16:08;;;;;;;;;;;8.20;91.80;;;;;;5029060;28;20437;-61
2021/05/06 16:18:38;;;;;;;;;;;8.10;92.10;;;;;;5022502;28;20307;-60
2021/05/06 16:21:05;;;;;;;;;;;8.10;92.30;;;;;;5021039;28;19957;-60
2021/05/06 16:23:31;;;;;;;;;;;8.00;91.90;;;;;;5023306;28;19921;-60
2021/05/06 16:25:56;;;;;;;;;;;8.10;91.80;;;;;;5024999;28;19974;-60
2021/05/06 16:28:22;;;;;;;;;;;8.10;92.60;;;;;;5026499;28;19951;-60
2021/05/06 16:30:49;;;;;;;;;;;8.10;91.30;;;;;;5020748;28;19929;-60
2021/05/06 16:33:15;;;;;;;;;;;8.10;91.80;;;;;;5028835;28;19916;-59
2021/05/06 16:35:51;;;;;;;;;;;8.20;92.10;;;;;;5020292;28;19921;-60
2021/05/06 16:38:18;;;;;;;;;;;8.20;91.10;;;;;;5025908;28;19927;-59
2021/05/06 16:41:09;;;;;;;;;;;8.30;91.00;;;;;;5018149;28;20266;-60
2021/05/06 16:46:15;;;;;;;;;;;8.50;90.90;;;;;;5016281;28;19937;-60
2021/05/06 16:48:41;;;;;;;;;;;8.50;91.00;;;;;;5026955;28;20316;-60
2021/05/06 16:51:07;;;;;;;;;;;8.60;91.30;;;;;;5023428;28;19921;-60
2021/05/06 16:53:33;;;;;;;;;;;8.60;90.30;;;;;;5022745;28;19921;-60
2021/05/06 16:55:59;;;;;;;;;;;8.60;90.70;;;;;;5016067;28;20045;-60
2021/05/06 16:58:24;;;;;;;;;;;8.60;91.10;;;;;;5022814;28;19917;-60
2021/05/06 17:00:52;;;;;;;;;;;8.60;89.10;;;;;;5013658;28;20002;-60
2021/05/06 17:03:18;;;;;;;;;;;8.50;89.80;;;;;;5022355;28;20004;-60
2021/05/06 17:05:43;;;;;;;;;;;8.40;91.20;;;;;;5015692;28;20000;-61
2021/05/06 17:08:09;;;;;;;;;;;8.40;91.30;;;;;;5025434;28;20035;-61
2021/05/06 17:10:36;;;;;;;;;;;8.30;90.50;;;;;;5019997;28;19924;-60
2021/05/06 17:13:07;;;;;;;;;;;8.20;89.30;;;;;;5018140;28;19933;-60
2021/05/06 17:15:33;;;;;;;;;;;8.20;90.10;;;;;;5024342;28;19917;-60
2021/05/06 17:17:59;;;;;;;;;;;7.80;90.90;;;;;;5018757;28;19916;-60
2021/05/06 17:20:24;;;;;;;;;;;7.80;90.90;;;;;;5024714;28;20032;-61
2021/05/06 17:22:50;;;;;;;;;;;7.70;92.40;;;;;;5017940;28;20319;-60
2021/05/06 17:25:16;;;;;;;;;;;7.60;91.80;;;;;;5020007;28;19991;-61
2021/05/06 17:27:42;;;;;;;;;;;7.40;91.30;;;;;;5019603;28;19917;-61
2021/05/06 17:30:11;;;;;;;;;;;7.30;92.00;;;;;;5024919;28;19927;-61
2021/05/06 17:32:40;;;;;;;;;;;7.20;92.00;;;;;;5013578;28;19963;-61
2021/05/06 17:35:06;;;;;;;;;;;7.10;92.20;;;;;;5022789;28;19960;-60